createdAt,value
2023-04-22T00:02:24.607Z,100033.75
2023-04-22T00:04:52.377Z,100033.84
2023-04-22T00:07:20.070Z,100034.84
2023-04-22T00:09:47.590Z,100029.59
2023-04-22T00:12:15.384Z,100034.09
2023-04-22T00:14:42.834Z,100039.50
2023-04-22T00:17:10.312Z,100041.22
2023-04-22T00:19:38.458Z,100049.19
2023-04-22T00:22:06.281Z,100050.81
2023-04-22T00:24:34.245Z,100064.13
2023-04-22T00:27:01.792Z,100055.78
2023-04-22T00:29:29.679Z,100050.63
2023-04-22T00:31:57.489Z,100056.81
2023-04-22T00:34:25.153Z,100053.56
2023-04-22T00:36:52.717Z,100054.13
2023-04-22T00:39:20.191Z,100061.25
2023-04-22T00:41:48.320Z,100068.00
2023-04-22T00:44:15.822Z,100065.06
2023-04-22T00:46:43.298Z,100069.66
2023-04-22T00:49:10.808Z,100062.81
2023-04-22T00:51:38.379Z,100066.38
2023-04-22T00:54:06.597Z,100065.69
2023-04-22T00:56:36.403Z,100069.09
2023-04-22T00:59:03.817Z,100080.31
2023-04-22T01:01:31.930Z,100074.81
2023-04-22T01:04:01.120Z,100076.69
2023-04-22T01:06:32.373Z,100081.00
2023-04-22T01:09:00.264Z,100082.88
2023-04-22T01:11:27.815Z,100078.47
2023-04-22T01:13:56.533Z,100079.31
2023-04-22T01:16:25.968Z,100078.91
2023-04-22T01:18:54.364Z,100083.03
2023-04-22T01:21:22.839Z,100088.28
2023-04-22T01:23:51.313Z,100083.38
2023-04-22T01:26:19.040Z,100090.50
2023-04-22T01:28:46.933Z,100078.59
2023-04-22T01:31:15.090Z,100079.22
2023-04-22T01:33:44.331Z,100083.56
2023-04-22T01:36:13.268Z,100087.97
2023-04-22T01:38:41.217Z,100083.88
2023-04-22T01:41:09.108Z,100087.97
2023-04-22T01:43:36.823Z,100089.91
2023-04-22T01:46:05.719Z,100082.25
2023-04-22T01:48:35.660Z,100083.88
2023-04-22T01:51:03.411Z,100078.06
2023-04-22T01:53:31.275Z,100084.19
2023-04-22T01:56:00.283Z,100082.78
2023-04-22T01:58:30.966Z,100084.66
2023-04-22T02:00:58.665Z,100084.44
2023-04-22T02:03:26.349Z,100087.38
2023-04-22T02:05:56.402Z,100082.13
2023-04-22T02:08:24.134Z,100084.88
2023-04-22T02:10:51.676Z,100088.47
2023-04-22T02:13:19.799Z,100090.91
2023-04-22T02:15:48.964Z,100094.00
2023-04-22T02:18:18.082Z,100090.47
2023-04-22T02:20:45.654Z,100093.84
2023-04-22T02:23:13.199Z,100091.31
2023-04-22T02:25:49.364Z,100096.75
2023-04-22T02:28:19.938Z,100091.63
2023-04-22T02:30:47.880Z,100091.78
2023-04-22T02:33:15.677Z,100091.31
2023-04-22T02:35:43.334Z,100086.44
2023-04-22T02:38:15.049Z,100098.50
2023-04-22T02:40:43.550Z,100095.00
2023-04-22T02:43:13.206Z,100095.31
2023-04-22T02:45:41.086Z,100102.13
2023-04-22T02:48:08.933Z,100103.06
2023-04-22T02:50:37.686Z,100103.22
2023-04-22T02:53:05.364Z,100104.25
2023-04-22T02:55:33.231Z,100102.44
2023-04-22T02:58:00.928Z,100110.34
2023-04-22T03:00:28.482Z,100111.03
2023-04-22T03:02:56.228Z,100115.59
2023-04-22T03:05:30.423Z,100112.81
2023-04-22T03:07:58.101Z,100108.78
2023-04-22T03:10:25.581Z,100115.75
2023-04-22T03:12:53.215Z,100116.19
2023-04-22T03:15:21.993Z,100120.56
2023-04-22T03:17:49.995Z,100129.22
2023-04-22T03:20:19.741Z,100135.09
2023-04-22T03:22:47.983Z,100135.16
2023-04-22T03:25:17.151Z,100138.72
2023-04-22T03:27:50.765Z,100139.25
2023-04-22T03:30:18.863Z,100136.00
2023-04-22T03:32:47.841Z,100145.31
2023-04-22T03:35:38.809Z,100141.75
2023-04-22T03:38:06.526Z,100152.50
2023-04-22T03:40:35.820Z,100148.31
2023-04-22T03:43:09.492Z,100155.34
2023-04-22T03:45:37.349Z,100159.63
2023-04-22T03:48:18.284Z,100155.53
2023-04-22T03:50:49.610Z,100163.25
2023-04-22T03:53:17.661Z,100164.94
2023-04-22T03:55:45.862Z,100163.72
2023-04-22T03:58:14.846Z,100167.44
2023-04-22T04:00:43.038Z,100166.50
2023-04-22T04:03:16.957Z,100165.13
2023-04-22T04:05:47.652Z,100174.09
2023-04-22T04:08:16.010Z,100180.06
2023-04-22T04:10:44.490Z,100175.94
2023-04-22T04:13:12.198Z,100183.47
2023-04-22T04:16:11.790Z,100182.44
2023-04-22T04:18:42.448Z,100184.13
2023-04-22T04:21:10.744Z,100182.34
2023-04-22T04:23:44.474Z,100180.53
2023-04-22T04:26:12.649Z,100183.69
2023-04-22T04:28:43.577Z,100187.47
2023-04-22T04:31:11.493Z,100188.09
2023-04-22T04:33:39.680Z,100194.22
2023-04-22T04:36:08.900Z,100194.03
2023-04-22T04:38:36.580Z,100195.44
2023-04-22T04:41:04.135Z,100197.13
2023-04-22T04:43:32.960Z,100196.59
2023-04-22T04:46:10.368Z,100201.72
2023-04-22T04:48:42.513Z,100209.69
2023-04-22T04:51:10.308Z,100202.69
2023-04-22T04:53:43.257Z,100206.13
2023-04-22T04:56:10.999Z,100207.44
2023-04-22T04:58:38.886Z,100211.44
2023-04-22T05:01:12.150Z,100209.84
2023-04-22T05:03:39.991Z,100210.28
2023-04-22T05:06:07.752Z,100211.81
2023-04-22T05:08:37.478Z,100213.91
2023-04-22T05:11:09.155Z,100211.19
2023-04-22T05:13:36.785Z,100213.81
2023-04-22T05:16:06.371Z,100212.09
2023-04-22T05:18:33.852Z,100214.38
2023-04-22T05:21:06.200Z,100211.69
2023-04-22T05:23:35.340Z,100217.41
2023-04-22T05:26:04.590Z,100209.31
2023-04-22T05:28:33.072Z,100214.16
2023-04-22T05:31:00.629Z,100211.94
2023-04-22T05:33:30.133Z,100220.97
2023-04-22T05:35:57.873Z,100215.03
2023-04-22T05:38:25.671Z,100213.75
2023-04-22T05:40:55.939Z,100213.34
2023-04-22T05:43:24.803Z,100204.75
2023-04-22T05:46:01.433Z,100210.78
2023-04-22T05:48:29.337Z,100208.56
2023-04-22T05:51:00.310Z,100199.72
2023-04-22T05:53:29.930Z,100198.38
2023-04-22T05:55:59.773Z,100206.19
2023-04-22T05:58:27.488Z,100205.50
2023-04-22T06:01:15.884Z,100208.91
2023-04-22T06:03:54.100Z,100208.06
2023-04-22T06:06:22.105Z,100212.31
2023-04-22T06:08:49.803Z,100206.53
2023-04-22T06:11:18.450Z,100202.97
2023-04-22T06:13:46.049Z,100203.03
2023-04-22T06:16:13.626Z,100206.09
2023-04-22T06:18:43.453Z,100201.06
2023-04-22T06:21:12.904Z,100212.31
2023-04-22T06:23:40.960Z,100210.75
2023-04-22T06:26:09.016Z,100211.19
2023-04-22T06:28:37.972Z,100208.38
2023-04-22T06:31:11.087Z,100207.16
2023-04-22T06:33:38.897Z,100201.88
2023-04-22T06:36:06.827Z,100211.38
2023-04-22T06:38:35.985Z,100221.94
2023-04-22T06:41:21.697Z,100226.25
2023-04-22T06:43:50.905Z,100229.81
2023-04-22T06:46:38.956Z,100223.00
2023-04-22T06:49:32.808Z,100222.50
2023-04-22T06:52:00.385Z,100226.69
2023-04-22T06:54:27.958Z,100230.50
2023-04-22T06:56:55.813Z,100223.09
2023-04-22T06:59:24.210Z,100226.53
2023-04-22T07:01:51.917Z,100223.88
2023-04-22T07:04:19.681Z,100218.75
2023-04-22T07:06:47.433Z,100226.38
2023-04-22T07:09:15.006Z,100223.88
2023-04-22T07:11:43.194Z,100215.47
2023-04-22T07:14:18.342Z,100228.13
2023-04-22T07:16:47.017Z,100227.91
2023-04-22T07:19:14.633Z,100223.19
2023-04-22T07:21:42.117Z,100230.34
2023-04-22T07:24:13.315Z,100227.28
2023-04-22T07:26:42.319Z,100218.16
2023-04-22T07:29:10.087Z,100219.91
2023-04-22T07:31:37.707Z,100227.25
2023-04-22T07:34:05.407Z,100223.75
2023-04-22T07:36:33.264Z,100224.50
2023-04-22T07:39:00.836Z,100240.97
2023-04-22T07:41:28.424Z,100248.47
2023-04-22T07:43:56.018Z,100249.72
2023-04-22T07:46:23.818Z,100250.53
2023-04-22T07:48:51.364Z,100256.72
2023-04-22T07:51:18.966Z,100268.38
2023-04-22T07:53:46.716Z,100258.78
2023-04-22T07:56:14.222Z,100261.31
2023-04-22T07:58:41.758Z,100266.44
2023-04-22T08:01:09.278Z,100258.56
2023-04-22T08:03:37.175Z,100260.44
2023-04-22T08:06:04.844Z,100261.84
2023-04-22T08:08:32.388Z,100271.25
2023-04-22T08:10:59.885Z,100274.34
2023-04-22T08:13:27.356Z,100276.22
2023-04-22T08:15:55.043Z,100279.31
2023-04-22T08:18:22.601Z,100282.72
2023-04-22T08:20:50.485Z,100275.56
2023-04-22T08:23:17.965Z,100289.00
2023-04-22T08:25:45.439Z,100280.13
2023-04-22T08:28:12.945Z,100285.50
2023-04-22T08:30:40.823Z,100275.09
2023-04-22T08:33:08.327Z,100282.09
2023-04-22T08:35:36.726Z,100281.41
2023-04-22T08:38:04.280Z,100289.81
2023-04-22T08:40:31.963Z,100300.00
2023-04-22T08:42:59.605Z,100292.47
2023-04-22T08:45:27.625Z,100297.19
2023-04-22T08:47:56.438Z,100290.69
2023-04-22T08:50:24.313Z,100290.53
2023-04-22T08:52:51.909Z,100283.50
2023-04-22T08:55:19.548Z,100290.53
2023-04-22T08:57:48.001Z,100284.84
2023-04-22T09:00:16.431Z,100292.88
2023-04-22T09:02:45.849Z,100292.22
2023-04-22T09:05:14.274Z,100294.31
2023-04-22T09:07:42.121Z,100298.47
2023-04-22T09:10:11.918Z,100304.66
2023-04-22T09:12:41.250Z,100295.03
2023-04-22T09:15:09.959Z,100306.56
2023-04-22T09:17:41.484Z,100302.91
2023-04-22T09:20:09.928Z,100306.78
2023-04-22T09:22:43.779Z,100314.13
2023-04-22T09:25:23.288Z,100317.16
2023-04-22T09:27:54.870Z,100316.88
2023-04-22T09:30:30.181Z,100304.31
2023-04-22T09:33:03.079Z,100311.88
2023-04-22T09:35:36.507Z,100314.69
2023-04-22T09:38:08.176Z,100321.84
2023-04-22T09:40:36.978Z,100329.53
2023-04-22T09:43:07.722Z,100330.84
2023-04-22T09:45:36.461Z,100338.31
2023-04-22T09:48:22.071Z,100335.84
2023-04-22T09:50:51.775Z,100337.19
2023-04-22T09:53:20.402Z,100339.81
2023-04-22T09:55:51.642Z,100332.56
2023-04-22T09:58:23.740Z,100329.25
2023-04-22T10:00:55.001Z,100327.56
2023-04-22T10:03:23.219Z,100325.88
2023-04-22T10:05:51.187Z,100332.84
2023-04-22T10:08:18.816Z,100326.50
2023-04-22T10:10:46.847Z,100328.13
2023-04-22T10:13:17.274Z,100327.72
2023-04-22T10:15:52.934Z,100326.56
2023-04-22T10:18:26.427Z,100332.41
2023-04-22T10:20:56.455Z,100328.16
2023-04-22T10:23:25.366Z,100319.19
2023-04-22T10:25:56.615Z,100314.97
2023-04-22T10:28:28.935Z,100323.66
2023-04-22T10:30:57.757Z,100319.34
2023-04-22T10:33:27.772Z,100326.53
2023-04-22T10:36:20.656Z,100329.41
2023-04-22T10:38:51.040Z,100338.88
2023-04-22T10:41:27.098Z,100335.03
2023-04-22T10:44:00.581Z,100340.38
2023-04-22T10:46:37.867Z,100335.66
2023-04-22T10:49:11.433Z,100332.06
2023-04-22T10:51:43.028Z,100323.94
2023-04-22T10:54:36.472Z,100322.94
2023-04-22T10:57:04.966Z,100321.25
2023-04-22T10:59:35.434Z,100313.53
2023-04-22T11:02:05.633Z,100318.59
2023-04-22T11:04:34.176Z,100322.44
2023-04-22T11:07:27.881Z,100324.28
2023-04-22T11:10:07.543Z,100324.94
2023-04-22T11:12:34.940Z,100344.81
2023-04-22T11:15:11.416Z,100353.44
2023-04-22T11:17:43.528Z,100361.94
2023-04-22T11:20:13.213Z,100369.31
2023-04-22T11:22:44.262Z,100373.75
2023-04-22T11:25:12.034Z,100373.28
2023-04-22T11:27:41.194Z,100374.41
2023-04-22T11:30:18.953Z,100375.31
2023-04-22T11:32:52.042Z,100378.03
2023-04-22T11:35:27.132Z,100367.13
2023-04-22T11:38:00.671Z,100351.44
2023-04-22T11:40:32.615Z,100353.75
2023-04-22T11:43:03.104Z,100343.66
2023-04-22T11:45:33.524Z,100358.34
2023-04-22T11:48:02.028Z,100348.88
2023-04-22T11:50:32.188Z,100342.22
2023-04-22T11:53:01.640Z,100353.59
2023-04-22T11:55:31.854Z,100345.31
2023-04-22T11:58:07.354Z,100339.28
2023-04-22T12:00:41.609Z,100343.44
2023-04-22T12:03:15.106Z,100344.06
2023-04-22T12:05:49.961Z,100346.28
2023-04-22T12:08:20.070Z,100344.94
2023-04-22T12:10:56.818Z,100346.41
2023-04-22T12:13:29.014Z,100334.63
2023-04-22T12:15:58.708Z,100335.88
2023-04-22T12:18:29.420Z,100332.59
2023-04-22T12:21:18.093Z,100333.53
2023-04-22T12:23:52.771Z,100340.91
2023-04-22T12:26:25.362Z,100341.97
2023-04-22T12:28:55.141Z,100341.97
2023-04-22T12:31:22.838Z,100331.91
2023-04-22T12:33:50.894Z,100339.00
2023-04-22T12:36:23.454Z,100340.16
2023-04-22T12:38:51.416Z,100341.00
2023-04-22T12:41:19.015Z,100338.78
2023-04-22T12:43:46.694Z,100347.69
2023-04-22T12:46:14.314Z,100347.47
2023-04-22T12:48:42.924Z,100350.34
2023-04-22T12:51:10.538Z,100347.47
2023-04-22T12:53:38.214Z,100355.97
2023-04-22T12:56:05.811Z,100343.00
2023-04-22T12:58:33.317Z,100353.81
2023-04-22T13:01:00.842Z,100362.94
2023-04-22T13:03:28.805Z,100373.88
2023-04-22T13:05:56.420Z,100376.19
2023-04-22T13:08:23.944Z,100384.81
2023-04-22T13:10:51.565Z,100392.97
2023-04-22T13:13:19.622Z,100412.66
2023-04-22T13:15:50.627Z,100413.44
2023-04-22T13:18:18.434Z,100415.50
2023-04-22T13:20:46.353Z,100422.41
2023-04-22T13:23:14.458Z,100442.78
2023-04-22T13:25:42.035Z,100447.94
2023-04-22T13:28:11.515Z,100462.44
2023-04-22T13:30:39.714Z,100464.81
2023-04-22T13:33:07.534Z,100481.00
2023-04-22T13:35:35.749Z,100485.06
2023-04-22T13:38:03.450Z,100477.03
2023-04-22T13:40:30.913Z,100477.03
2023-04-22T13:42:59.032Z,100472.69
2023-04-22T13:45:26.670Z,100485.31
2023-04-22T13:47:54.527Z,100493.59
2023-04-22T13:50:23.398Z,100510.28
2023-04-22T13:52:51.304Z,100504.13
2023-04-22T13:55:18.942Z,100509.94
2023-04-22T13:57:46.703Z,100505.16
2023-04-22T14:00:14.962Z,100507.41
2023-04-22T14:02:42.823Z,100513.84
2023-04-22T14:05:10.940Z,100513.19
2023-04-22T14:07:38.767Z,100519.75
2023-04-22T14:10:08.522Z,100515.00
2023-04-22T14:12:36.331Z,100517.34
2023-04-22T14:15:04.157Z,100515.00
2023-04-22T14:17:32.726Z,100515.72
2023-04-22T14:20:00.242Z,100517.63
2023-04-22T14:22:27.843Z,100516.28
2023-04-22T14:24:55.737Z,100508.22
2023-04-22T14:27:23.297Z,100506.75
2023-04-22T14:29:54.001Z,100509.69
2023-04-22T14:32:21.942Z,100500.19
2023-04-22T14:34:49.497Z,100504.91
2023-04-22T14:37:17.024Z,100504.53
2023-04-22T14:39:44.514Z,100490.59
2023-04-22T14:42:12.245Z,100495.19
2023-04-22T14:44:39.877Z,100490.88
2023-04-22T14:47:07.496Z,100487.84
2023-04-22T14:49:35.047Z,100494.00
2023-04-22T14:52:03.018Z,100491.59
2023-04-22T14:54:30.863Z,100484.25
2023-04-22T14:56:58.697Z,100495.50
2023-04-22T14:59:26.553Z,100492.75
2023-04-22T15:01:54.242Z,100494.00
2023-04-22T15:04:21.912Z,100490.31
2023-04-22T15:06:49.559Z,100488.34
2023-04-22T15:09:17.520Z,100480.09
2023-04-22T15:11:45.013Z,100493.44
2023-04-22T15:14:12.593Z,100495.97
2023-04-22T15:16:40.362Z,100497.72
2023-04-22T15:19:08.259Z,100486.38
2023-04-22T15:21:36.058Z,100485.31
2023-04-22T15:24:03.610Z,100478.09
2023-04-22T15:26:32.333Z,100471.94
2023-04-22T15:29:00.589Z,100463.94
2023-04-22T15:31:28.265Z,100459.91
2023-04-22T15:33:56.348Z,100464.31
2023-04-22T15:36:23.858Z,100465.59
2023-04-22T15:38:56.537Z,100473.19
2023-04-22T15:41:24.881Z,100472.34
2023-04-22T15:43:53.791Z,100477.59
2023-04-22T15:46:22.421Z,100478.97
2023-04-22T15:48:50.296Z,100480.16
2023-04-22T15:51:18.975Z,100482.13
2023-04-22T15:53:46.630Z,100487.63
2023-04-22T15:56:15.367Z,100503.81
2023-04-22T15:58:43.030Z,100504.22
2023-04-22T16:01:18.762Z,100515.97
2023-04-22T16:03:48.762Z,100520.59
2023-04-22T16:06:18.061Z,100531.34
2023-04-22T16:08:46.165Z,100531.16
2023-04-22T16:11:15.325Z,100532.03
2023-04-22T16:13:43.020Z,100537.59
2023-04-22T16:16:11.205Z,100542.19
2023-04-22T16:18:41.416Z,100546.09
2023-04-22T16:21:10.710Z,100549.66
2023-04-22T16:23:38.296Z,100558.16
2023-04-22T16:26:06.514Z,100562.13
2023-04-22T16:28:34.144Z,100564.97
2023-04-22T16:31:02.430Z,100573.31
2023-04-22T16:33:30.028Z,100560.81
2023-04-22T16:35:57.505Z,100575.06
2023-04-22T16:38:25.040Z,100567.13
2023-04-22T16:40:54.413Z,100572.69
2023-04-22T16:43:22.111Z,100577.66
2023-04-22T16:45:49.747Z,100588.47
2023-04-22T16:48:18.514Z,100584.38
2023-04-22T16:50:46.131Z,100584.84
2023-04-22T16:53:13.657Z,100589.06
2023-04-22T16:55:41.486Z,100596.56
2023-04-22T16:58:09.124Z,100604.59
2023-04-22T17:00:37.407Z,100610.50
2023-04-22T17:03:06.179Z,100630.38
2023-04-22T17:05:34.202Z,100624.25
2023-04-22T17:08:02.172Z,100637.38
2023-04-22T17:10:30.238Z,100636.09
2023-04-22T17:12:57.866Z,100637.03
2023-04-22T17:15:25.356Z,100647.59
2023-04-22T17:17:52.865Z,100644.97
2023-04-22T17:20:20.590Z,100640.56
2023-04-22T17:22:48.101Z,100645.72
2023-04-22T17:25:15.649Z,100645.53
2023-04-22T17:27:43.108Z,100636.66
2023-04-22T17:30:11.117Z,100636.75
2023-04-22T17:32:39.010Z,100640.06
2023-04-22T17:35:06.998Z,100636.09
2023-04-22T17:37:34.525Z,100642.22
2023-04-22T17:40:04.804Z,100644.19
2023-04-22T17:42:44.645Z,100646.13
2023-04-22T17:45:13.252Z,100652.34
2023-04-22T17:47:40.913Z,100657.53
2023-04-22T17:50:08.849Z,100655.06
2023-04-22T17:52:36.634Z,100660.28
2023-04-22T17:55:04.604Z,100650.56
2023-04-22T17:57:32.200Z,100656.69
2023-04-22T17:59:59.939Z,100654.66
2023-04-22T18:02:27.721Z,100652.25
2023-04-22T18:04:55.334Z,100654.75
2023-04-22T18:07:23.034Z,100658.25
2023-04-22T18:09:50.810Z,100653.38
2023-04-22T18:12:18.691Z,100645.91
2023-04-22T18:14:46.281Z,100655.22
2023-04-22T18:17:14.043Z,100653.44
2023-04-22T18:19:41.874Z,100649.34
2023-04-22T18:22:09.549Z,100649.59
2023-04-22T18:24:37.324Z,100645.91
2023-04-22T18:27:04.853Z,100652.84
2023-04-22T18:29:32.552Z,100659.75
2023-04-22T18:32:00.062Z,100652.75
2023-04-22T18:34:29.148Z,100659.75
2023-04-22T18:36:56.684Z,100653.94
2023-04-22T18:39:24.177Z,100661.63
2023-04-22T18:41:52.122Z,100663.47
2023-04-22T18:44:20.515Z,100654.94
2023-04-22T18:46:48.144Z,100661.41
2023-04-22T18:49:15.647Z,100660.84
2023-04-22T18:51:43.112Z,100661.81
2023-04-22T18:54:10.613Z,100657.59
2023-04-22T18:56:38.148Z,100671.72
2023-04-22T18:59:05.778Z,100672.97
2023-04-22T19:01:36.796Z,100667.63
2023-04-22T19:04:04.581Z,100675.63
2023-04-22T19:06:32.962Z,100672.34
2023-04-22T19:09:00.655Z,100676.63
2023-04-22T19:11:28.152Z,100687.03
2023-04-22T19:13:55.722Z,100682.84
2023-04-22T19:16:25.667Z,100678.44
2023-04-22T19:18:54.080Z,100678.78
2023-04-22T19:21:21.985Z,100679.66
2023-04-22T19:23:52.958Z,100677.78
2023-04-22T19:26:21.264Z,100677.72
2023-04-22T19:28:49.240Z,100684.22
2023-04-22T19:31:17.380Z,100689.50
2023-04-22T19:33:45.299Z,100694.97
2023-04-22T19:36:13.020Z,100691.59
2023-04-22T19:38:40.860Z,100695.00
2023-04-22T19:41:09.203Z,100705.56
2023-04-22T19:43:37.946Z,100708.56
2023-04-22T19:46:05.508Z,100710.78
2023-04-22T19:48:33.700Z,100707.44
2023-04-22T19:51:01.550Z,100710.28
2023-04-22T19:53:30.863Z,100703.59
2023-04-22T19:55:58.668Z,100702.03
2023-04-22T19:58:28.269Z,100707.00
2023-04-22T20:00:56.010Z,100708.22
2023-04-22T20:03:24.073Z,100705.88
2023-04-22T20:05:52.096Z,100705.03
2023-04-22T20:08:20.011Z,100712.59
2023-04-22T20:10:49.731Z,100716.22
2023-04-22T20:13:18.055Z,100713.78
2023-04-22T20:15:45.641Z,100716.38
2023-04-22T20:18:13.278Z,100726.06
2023-04-22T20:20:45.784Z,100718.84
2023-04-22T20:23:14.914Z,100724.84
2023-04-22T20:25:47.159Z,100723.44
2023-04-22T20:28:15.007Z,100726.97
2023-04-22T20:30:43.054Z,100730.41
2023-04-22T20:33:15.750Z,100733.97
2023-04-22T20:35:46.126Z,100733.97
2023-04-22T20:38:15.131Z,100736.38
2023-04-22T20:40:44.744Z,100726.84
2023-04-22T20:43:13.065Z,100723.13
2023-04-22T20:45:40.554Z,100722.78
2023-04-22T20:48:08.371Z,100727.03
2023-04-22T20:50:36.059Z,100729.97
2023-04-22T20:53:03.936Z,100723.75
2023-04-22T20:55:31.795Z,100725.47
2023-04-22T20:57:59.530Z,100723.28
2023-04-22T21:00:27.134Z,100731.25
2023-04-22T21:02:55.939Z,100731.97
2023-04-22T21:05:23.672Z,100731.97
2023-04-22T21:07:52.712Z,100727.53
2023-04-22T21:10:21.184Z,100739.09
2023-04-22T21:12:49.029Z,100741.81
2023-04-22T21:15:16.973Z,100744.38
2023-04-22T21:17:51.966Z,100745.28
2023-04-22T21:20:19.902Z,100741.94
2023-04-22T21:22:48.387Z,100743.94
2023-04-22T21:25:22.173Z,100744.31
2023-04-22T21:27:50.309Z,100745.38
2023-04-22T21:30:18.456Z,100744.88
2023-04-22T21:32:45.962Z,100743.78
2023-04-22T21:35:13.552Z,100746.56
2023-04-22T21:37:41.365Z,100749.31
2023-04-22T21:40:13.094Z,100751.19
2023-04-22T21:42:41.753Z,100753.69
2023-04-22T21:45:09.750Z,100759.09
2023-04-22T21:47:37.737Z,100755.00
2023-04-22T21:50:06.731Z,100759.63
2023-04-22T21:52:35.024Z,100753.50
2023-04-22T21:55:02.627Z,100762.91
2023-04-22T21:57:30.428Z,100757.00
2023-04-22T21:59:57.983Z,100760.44
2023-04-22T22:02:28.374Z,100766.69
2023-04-22T22:04:55.892Z,100760.56
2023-04-22T22:07:23.466Z,100764.53
2023-04-22T22:09:50.928Z,100772.03
2023-04-22T22:12:18.761Z,100775.50
2023-04-22T22:14:46.339Z,100770.31
2023-04-22T22:17:13.920Z,100773.66
2023-04-22T22:19:42.068Z,100767.25
2023-04-22T22:22:09.555Z,100778.03
2023-04-22T22:24:37.145Z,100774.38
2023-04-22T22:27:05.517Z,100764.78
2023-04-22T22:29:34.382Z,100778.88
2023-04-22T22:32:01.982Z,100772.81
2023-04-22T22:34:29.673Z,100771.44
2023-04-22T22:36:57.178Z,100775.50
2023-04-22T22:39:24.831Z,100773.28
2023-04-22T22:41:52.341Z,100772.81
2023-04-22T22:44:19.791Z,100780.00
2023-04-22T22:46:47.421Z,100783.22
2023-04-22T22:49:14.954Z,100783.59
2023-04-22T22:51:42.455Z,100779.91
2023-04-22T22:54:10.001Z,100777.09
2023-04-22T22:56:37.520Z,100788.34
2023-04-22T22:59:05.237Z,100785.69
2023-04-22T23:01:32.900Z,100795.28
2023-04-22T23:04:01.125Z,100794.88
2023-04-22T23:06:28.919Z,100794.03
2023-04-22T23:08:57.207Z,100789.03
2023-04-22T23:11:24.826Z,100785.53
2023-04-22T23:13:52.267Z,100784.59
2023-04-22T23:16:19.842Z,100788.59
2023-04-22T23:18:48.149Z,100789.28
2023-04-22T23:21:16.280Z,100793.50
2023-04-22T23:23:43.900Z,100788.22
2023-04-22T23:26:11.820Z,100788.28
2023-04-22T23:28:39.798Z,100796.31
2023-04-22T23:31:09.144Z,100790.34
2023-04-22T23:33:41.915Z,100793.88
2023-04-22T23:36:11.562Z,100789.34
2023-04-22T23:38:39.033Z,100793.22
2023-04-22T23:41:06.751Z,100792.41
2023-04-22T23:43:34.321Z,100788.06
2023-04-22T23:46:01.874Z,100792.31
2023-04-22T23:48:29.778Z,100799.94
2023-04-22T23:50:57.306Z,100795.78
2023-04-22T23:53:24.824Z,100797.34
2023-04-22T23:55:52.530Z,100810.31
2023-04-22T23:58:20.375Z,100805.13
